createdAt,value
2023-05-21T00:04:08.852Z,8.43
2023-05-21T00:09:30.176Z,9.07
2023-05-21T00:14:51.375Z,9.00
2023-05-21T00:20:14.045Z,8.48
2023-05-21T00:25:35.386Z,8.70
2023-05-21T00:30:56.646Z,9.40
2023-05-21T00:36:17.910Z,9.98
2023-05-21T00:41:40.465Z,9.40
2023-05-21T00:47:02.763Z,9.93
2023-05-21T00:52:27.182Z,9.52
2023-05-21T00:57:49.749Z,9.88
2023-05-21T01:03:12.772Z,9.30
2023-05-21T01:08:36.374Z,9.50
2023-05-21T01:13:57.693Z,9.68
2023-05-21T01:19:24.651Z,9.20
2023-05-21T01:24:47.810Z,10.18
2023-05-21T01:30:09.342Z,9.38
2023-05-21T01:35:41.966Z,10.60
2023-05-21T01:41:08.145Z,9.55
2023-05-21T01:46:33.475Z,9.13
2023-05-21T01:51:55.506Z,10.93
2023-05-21T01:57:17.366Z,9.15
2023-05-21T02:02:38.266Z,11.25
2023-05-21T02:08:00.200Z,10.18
2023-05-21T02:13:25.165Z,10.07
2023-05-21T02:18:48.479Z,10.27
2023-05-21T02:24:09.502Z,11.73
2023-05-21T02:29:30.445Z,11.70
2023-05-21T02:34:51.966Z,11.45
2023-05-21T02:40:13.649Z,9.90
2023-05-21T02:45:35.763Z,10.82
2023-05-21T02:50:57.468Z,10.88
2023-05-21T02:56:18.752Z,10.98
2023-05-21T03:01:41.528Z,12.23
2023-05-21T03:07:03.665Z,11.40
2023-05-21T03:12:25.306Z,11.27
2023-05-21T03:17:46.159Z,11.40
2023-05-21T03:23:06.828Z,11.50
2023-05-21T03:28:27.645Z,10.88
2023-05-21T03:33:48.452Z,10.77
2023-05-21T03:39:17.631Z,11.02
2023-05-21T03:44:38.886Z,11.23
2023-05-21T03:50:37.873Z,11.02
2023-05-21T03:55:59.564Z,10.27
2023-05-21T04:01:20.951Z,11.13
2023-05-21T04:06:44.443Z,10.68
2023-05-21T04:12:07.985Z,10.40
2023-05-21T04:17:30.965Z,11.75
2023-05-21T04:22:52.195Z,10.63
2023-05-21T04:28:13.047Z,10.18
2023-05-21T04:33:35.904Z,10.35
2023-05-21T04:38:56.936Z,11.60
2023-05-21T04:44:18.460Z,10.82
2023-05-21T04:49:41.291Z,8.95
2023-05-21T04:55:03.021Z,9.75
2023-05-21T05:00:26.232Z,9.65
2023-05-21T05:05:48.038Z,10.25
2023-05-21T05:11:09.249Z,9.52
2023-05-21T05:16:30.315Z,9.52
2023-05-21T05:21:51.550Z,9.80
2023-05-21T05:27:12.798Z,8.95
2023-05-21T05:32:33.685Z,7.63
2023-05-21T05:37:55.339Z,8.20
2023-05-21T05:43:16.677Z,7.60
2023-05-21T05:48:38.253Z,8.95
2023-05-21T05:54:00.376Z,8.38
2023-05-21T05:59:21.386Z,6.55
2023-05-21T06:04:44.617Z,7.25
2023-05-21T06:10:09.345Z,7.40
2023-05-21T06:15:30.498Z,6.70
2023-05-21T06:20:52.055Z,6.90
2023-05-21T06:26:14.786Z,6.57
2023-05-21T06:31:36.071Z,6.57
2023-05-21T06:36:57.535Z,7.13
2023-05-21T06:42:18.914Z,6.40
2023-05-21T06:48:20.635Z,6.80
2023-05-21T06:53:43.065Z,6.30
2023-05-21T06:59:04.073Z,6.22
2023-05-21T07:04:25.074Z,6.88
2023-05-21T07:09:45.964Z,6.05
2023-05-21T07:15:08.071Z,6.90
2023-05-21T07:20:29.937Z,6.60
2023-05-21T07:25:55.208Z,6.15
2023-05-21T07:31:16.895Z,6.30
2023-05-21T07:36:41.740Z,5.90
2023-05-21T07:42:03.343Z,5.22
2023-05-21T07:47:24.391Z,5.75
2023-05-21T07:52:46.764Z,6.22
2023-05-21T07:58:08.093Z,6.88
2023-05-21T08:03:31.094Z,5.22
2023-05-21T08:08:52.444Z,5.63
2023-05-21T08:14:14.020Z,6.05
2023-05-21T08:19:35.732Z,5.57
2023-05-21T08:24:56.808Z,5.50
2023-05-21T08:30:18.491Z,6.15
2023-05-21T08:35:39.950Z,5.03
2023-05-21T08:41:12.379Z,5.07
2023-05-21T08:46:34.965Z,5.55
2023-05-21T08:51:56.590Z,4.70
2023-05-21T08:57:20.182Z,4.05
2023-05-21T09:02:44.033Z,4.50
2023-05-21T09:08:18.221Z,4.43
2023-05-21T09:13:51.877Z,4.50
2023-05-21T09:19:23.150Z,4.25
2023-05-21T09:24:45.009Z,4.80
2023-05-21T09:30:11.776Z,5.03
2023-05-21T09:35:34.516Z,5.45
2023-05-21T09:40:57.290Z,4.53
2023-05-21T09:46:21.843Z,4.88
2023-05-21T09:51:44.053Z,5.07
2023-05-21T09:57:05.023Z,4.50
2023-05-21T10:02:29.005Z,4.60
2023-05-21T10:07:51.682Z,4.25
2023-05-21T10:13:14.929Z,4.35
2023-05-21T10:18:38.002Z,4.30
2023-05-21T10:23:59.737Z,4.70
2023-05-21T10:29:23.211Z,4.28
2023-05-21T10:34:44.441Z,4.28
2023-05-21T10:40:06.273Z,4.82
2023-05-21T10:45:43.055Z,4.22
2023-05-21T10:51:25.203Z,4.30
2023-05-21T10:56:57.131Z,3.80
2023-05-21T11:02:22.605Z,4.10
2023-05-21T11:08:01.159Z,4.07
2023-05-21T11:13:25.349Z,3.83
2023-05-21T11:18:46.389Z,4.00
2023-05-21T11:24:08.837Z,4.40
2023-05-21T11:29:40.703Z,4.03
2023-05-21T11:35:02.456Z,4.10
2023-05-21T11:40:30.204Z,3.15
2023-05-21T11:45:53.408Z,3.38
2023-05-21T11:51:14.357Z,3.45
2023-05-21T11:56:36.864Z,3.88
2023-05-21T12:01:59.354Z,4.10
2023-05-21T12:07:21.064Z,3.85
2023-05-21T12:12:54.063Z,3.67
2023-05-21T12:18:16.867Z,3.38
2023-05-21T12:23:37.927Z,3.65
2023-05-21T12:28:59.060Z,4.05
2023-05-21T12:34:39.131Z,3.67
2023-05-21T12:40:01.516Z,3.30
2023-05-21T12:45:22.850Z,3.28
2023-05-21T12:50:44.133Z,3.55
2023-05-21T12:56:10.330Z,4.20
2023-05-21T13:01:31.456Z,3.95
2023-05-21T13:06:52.871Z,4.03
2023-05-21T13:12:14.413Z,3.72
2023-05-21T13:17:35.659Z,4.35
2023-05-21T13:22:56.884Z,4.47
2023-05-21T13:28:18.008Z,4.00
2023-05-21T13:33:38.992Z,3.97
2023-05-21T13:39:00.175Z,3.78
2023-05-21T13:44:21.179Z,3.75
2023-05-21T13:49:42.917Z,4.03
2023-05-21T13:55:04.774Z,3.70
2023-05-21T14:00:25.658Z,3.78
2023-05-21T14:05:48.456Z,3.90
2023-05-21T14:11:09.630Z,3.20
2023-05-21T14:16:30.756Z,3.35
2023-05-21T14:21:52.900Z,3.50
2023-05-21T14:27:15.407Z,4.43
2023-05-21T14:32:36.414Z,3.53
2023-05-21T14:37:57.261Z,3.58
2023-05-21T14:43:18.017Z,3.85
2023-05-21T14:48:39.916Z,3.20
2023-05-21T14:54:00.968Z,3.55
2023-05-21T14:59:21.714Z,3.00
2023-05-21T15:04:42.525Z,3.55
2023-05-21T15:10:03.166Z,3.55
2023-05-21T15:15:24.056Z,3.70
2023-05-21T15:20:45.091Z,3.80
2023-05-21T15:26:06.270Z,3.55
2023-05-21T15:31:26.840Z,3.10
2023-05-21T15:36:47.660Z,3.40
2023-05-21T15:42:11.785Z,3.08
2023-05-21T15:47:33.202Z,3.25
2023-05-21T15:52:54.442Z,3.20
2023-05-21T15:58:15.185Z,3.40
2023-05-21T16:03:35.979Z,3.17
2023-05-21T16:08:56.656Z,3.85
2023-05-21T16:14:17.475Z,4.13
2023-05-21T16:19:38.959Z,5.10
2023-05-21T16:25:00.184Z,36.40
2023-05-21T16:30:21.217Z,4.85
2023-05-21T16:35:42.070Z,4.28
2023-05-21T16:41:05.588Z,3.47
2023-05-21T16:46:26.626Z,3.75
2023-05-21T16:51:47.978Z,3.75
2023-05-21T16:57:09.099Z,3.53
2023-05-21T17:02:30.766Z,3.45
2023-05-21T17:07:51.987Z,4.03
2023-05-21T17:13:21.613Z,3.95
2023-05-21T17:18:43.840Z,3.90
2023-05-21T17:24:05.223Z,3.80
2023-05-21T17:29:26.230Z,3.47
2023-05-21T17:34:47.374Z,3.67
2023-05-21T17:40:08.945Z,4.50
2023-05-21T17:45:30.497Z,4.40
2023-05-21T17:50:51.502Z,4.47
2023-05-21T17:56:12.594Z,4.10
2023-05-21T18:01:35.474Z,4.15
2023-05-21T18:06:56.633Z,4.10
2023-05-21T18:12:17.782Z,4.50
2023-05-21T18:17:39.384Z,4.45
2023-05-21T18:23:00.847Z,4.22
2023-05-21T18:28:21.845Z,4.20
2023-05-21T18:33:42.898Z,3.92
2023-05-21T18:39:04.923Z,3.47
2023-05-21T18:44:26.313Z,3.60
2023-05-21T18:49:47.294Z,4.07
2023-05-21T18:55:08.730Z,4.20
2023-05-21T19:00:29.698Z,4.10
2023-05-21T19:05:50.744Z,4.07
2023-05-21T19:11:12.292Z,4.38
2023-05-21T19:16:33.793Z,4.22
2023-05-21T19:21:54.863Z,5.70
2023-05-21T19:27:16.471Z,4.40
2023-05-21T19:32:37.633Z,4.47
2023-05-21T19:38:03.290Z,3.92
2023-05-21T19:43:25.877Z,4.45
2023-05-21T19:48:46.813Z,4.70
2023-05-21T19:54:07.994Z,4.43
2023-05-21T19:59:29.218Z,3.97
2023-05-21T20:04:50.818Z,3.92
2023-05-21T20:10:11.863Z,3.97
2023-05-21T20:15:32.976Z,4.07
2023-05-21T20:20:55.090Z,4.35
2023-05-21T20:26:16.784Z,4.97
2023-05-21T20:31:37.941Z,4.40
2023-05-21T20:36:59.156Z,4.22
2023-05-21T20:42:21.376Z,4.30
2023-05-21T20:47:43.619Z,4.20
2023-05-21T20:53:04.472Z,4.38
2023-05-21T20:58:25.719Z,4.07
2023-05-21T21:03:48.292Z,4.30
2023-05-21T21:09:09.285Z,4.38
2023-05-21T21:14:31.499Z,4.43
2023-05-21T21:19:52.943Z,4.65
2023-05-21T21:25:14.048Z,4.35
2023-05-21T21:30:35.217Z,4.60
2023-05-21T21:35:56.611Z,4.38
2023-05-21T21:41:17.930Z,4.57
2023-05-21T21:46:39.170Z,4.60
2023-05-21T21:51:59.960Z,4.18
2023-05-21T21:57:21.670Z,5.10
2023-05-21T22:02:48.619Z,4.80
2023-05-21T22:08:09.837Z,4.88
2023-05-21T22:13:30.499Z,4.63
2023-05-21T22:18:51.355Z,5.00
2023-05-21T22:24:30.351Z,4.80
2023-05-21T22:29:51.436Z,4.50
2023-05-21T22:35:12.677Z,4.70
2023-05-21T22:40:33.411Z,4.72
2023-05-21T22:45:54.408Z,4.88
2023-05-21T22:51:15.431Z,4.65
2023-05-21T22:56:37.016Z,5.13
2023-05-21T23:01:58.280Z,4.95
2023-05-21T23:07:19.597Z,5.57
2023-05-21T23:12:41.579Z,4.78
2023-05-21T23:18:04.055Z,5.00
2023-05-21T23:23:25.200Z,4.78
2023-05-21T23:28:46.128Z,5.00
2023-05-21T23:34:07.159Z,4.65
2023-05-21T23:39:31.049Z,4.47
2023-05-21T23:44:52.079Z,4.43
2023-05-21T23:50:13.465Z,4.55
2023-05-21T23:55:34.097Z,4.60
